Hidden Valley, Valles Caldera, New Mexico Weather observations

Data are for 10 minute period ending at time listed.
 Day   Time   Solar   Ave.   Ave.  Ave.  Vector  Max.   Baro.   Total    
  of    of     Rad.   Air    Rel.  Wind   Wind   Wind  Press.  Precip.   
Year   Day            Temp.  Hum.  Speed  Dir.   Gust                    
2017   (MST)  Kw/m2    F      %     mph   deg.    mph    mb.     in.     
-------------------------------------------------------------------------
  16   11:30   0.30   32.9    84    2.2   193     3.3   740.6    0.00 
  16   11:40   0.32   33.2    84    1.8   201     2.7   740.5    0.00 
  16   11:50   0.34   32.5    86    3.1   211     4.0   740.5    0.00 
  16   12:00   0.31   32.2    86    2.9   213     3.9   740.5    0.00 
  16   12:10   0.29   32.2    86    2.7   218     3.8   740.5    0.00 
  16   12:20   0.25   32.3    87    2.9   209     4.3   740.5    0.00 
  16   12:30   0.23   31.9    88    3.3   205     4.4   740.5    0.00 
  16   12:40   0.22   31.8    88    3.2   198     5.5   740.5    0.00 
  16   12:50   0.30   31.6    86    4.1   208     6.3   740.5    0.00 
  16   13:00   0.32   31.5    87    4.2   203     6.2   740.4    0.00 
  16   13:10   0.37   31.4    88    3.9   199     6.8   740.4    0.00 
  16   13:20   0.40   31.9    86    3.8   192     5.7   740.4    0.00 
  16   13:30   0.39   32.1    85    4.0   194     6.1   740.3    0.00 
  16   13:40   0.31   31.9    85    3.6   193     5.5   740.4    0.00 
  16   13:50   0.34   32.4    85    2.8   174     4.1   740.3    0.00 
  16   14:00   0.35   33.1    82    2.8   187     6.0   740.3    0.00 
  16   14:10   0.36   33.5    81    2.4   193     4.2   740.3    0.00 
  16   14:20   0.32   32.9    84    3.9   202     5.4   740.3    0.00 
  16   14:30   0.31   32.7    84    2.9   194     4.9   740.4    0.00 
  16   14:40   0.25   33.0    84    2.8   193     4.6   740.4    0.00 
  16   14:50   0.25   32.8    85    2.9   207     4.2   740.4    0.00 
  16   15:00   0.23   32.5    86    3.2   208     4.5   740.4    0.00 
  16   15:10   0.14   31.9    86    3.3   205     4.8   740.5    0.00 
  16   15:20   0.13   31.6    87    3.2   206     4.6   740.6    0.00 
  16   15:30   0.14   31.6    86    2.3   211     3.8   740.6    0.00 
  16   15:40   0.15   32.3    82    1.7   209     3.2   740.7    0.00 
  16   15:50   0.13   32.3    81    1.7   201     3.4   740.8    0.00 
  16   16:00   0.11   32.5    82    1.3   198     2.1   740.9    0.00 
  16   16:10   0.08   32.1    85    2.5   184     3.7   741.1    0.00 
  16   16:20   0.07   31.7    86    2.6   198     3.7   741.2    0.00 
  16   16:30   0.06   31.6    88    2.3   205     2.9   741.3    0.00 
  16   16:40   0.05   31.4    88    2.3   213     2.9   741.4    0.00 
  16   16:50   0.04   31.2    90    1.6   198     2.2   741.5    0.00 
  16   17:00   0.03   31.2    90    1.1   210     1.7   741.5    0.00 
  16   17:10   0.01   30.8    89    0.6   185     1.1   741.6    0.00 
  16   17:20   0.01   30.0    90    0.3   173     0.6   741.7    0.00 
  16   17:30   0.00   30.1    91    1.3   213     1.8   741.8    0.00 
  16   17:40   0.00   30.2    92    1.7   219     2.3   741.9    0.00 
  16   17:50   0.00   29.5    94    1.9   204     2.5   742.0    0.00 
  16   18:00   0.00   29.3    95    2.0   219     2.3   742.1    0.00 
  16   18:10   0.00   29.3    95    1.9   222     2.4   742.2    0.00 
  16   18:20   0.00   29.3    95    1.7   215     2.2   742.2    0.00 
  16   18:30   0.00   29.0    96    1.5   229     2.1   742.3    0.00 
  16   18:40   0.00   29.1    98    1.6   224     2.2   742.3    0.00 
  16   18:50   0.00   28.2    94    1.4   345     2.1   742.5    0.00 
  16   19:00   0.00   26.8    95    0.3   354     1.7   742.6    0.00 
  16   19:10   0.00   27.1    97    0.3   200     1.2   742.7    0.00 
  16   19:20   0.00   28.1    99    0.8   235     1.4   742.7    0.00 
  16   19:30   0.00   29.0    98    0.9   205     1.8   742.7    0.00 
  16   19:40   0.00   27.9    95    0.9    54     1.4   742.8    0.00 
  16   19:50   0.00   27.7    97    0.2   302     0.8   742.8    0.00 
  16   20:00   0.00   28.0    99    0.2   170     1.2   742.9    0.00 
  16   20:10   0.00   28.3    99    1.3   163     3.0   743.0    0.00 
  16   20:20   0.00   29.5    98    2.4   193     4.9   743.0    0.00 
  16   20:30   0.00   29.3    97    2.4   201     4.6   743.2    0.00 
  16   20:40   0.00   28.9    97    2.2   210     3.7   743.2    0.00 
  16   20:50   0.00   28.6    99    2.5   209     4.7   743.4    0.00 
  16   21:00   0.00   28.3    99    2.9   199     6.6   743.5    0.00 
  16   21:10   0.00   28.3    99    2.7   213     4.7   743.6    0.00 
  16   21:20   0.00   28.2    99    2.7   207     4.9   743.6    0.00 
  16   21:30   0.00   28.1    99    2.5   198     4.8   743.7    0.00 
  16   21:40   0.00   28.0    99    1.9   202     3.4   743.8    0.00 
  16   21:50   0.00   28.0   100    3.0   187     5.0   743.8    0.00 
  16   22:00   0.00   27.9   100    3.5   183     7.3   743.8    0.00 
  16   22:10   0.00   27.8   100    2.3   199     3.9   743.9    0.00 
  16   22:20   0.00   27.8   100    1.6   187     3.2   743.9    0.00 
  16   22:30   0.00   27.7   100    2.1   186     3.8   744.0    0.00 
  16   22:40   0.00   27.7   100    1.5   156     2.4   744.0    0.00 
  16   22:50   0.00   27.8   100    2.2   183     4.1   744.0    0.00 
  16   23:00   0.00   27.8   100    2.6   183     4.3   744.0    0.00 
  16   23:10   0.00   27.8   100    2.3   186     4.0   744.0    0.00 
  16   23:20   0.00   27.7   100    2.0   187     4.6   744.1    0.00 
  16   23:30   0.00   27.6   100    1.5   218     2.8   744.1    0.00 
  16   23:40   0.00   27.5   100    1.7   203     3.1   744.1    0.00 
  16   23:50   0.00   27.5   100    2.2   202     4.2   744.1    0.00 
  17    0:00   0.00   27.5   100    2.8   192     4.2   744.0    0.00 
  17    0:10   0.00   27.4   100    2.4   186     4.8   744.0    0.00 
  17    0:20   0.00   27.2   100    2.2   187     3.9   744.0    0.00 
  17    0:30   0.00   27.1   100    1.9   211     3.2   744.0    0.00 
  17    0:40   0.00   27.0   100    1.6   215     3.2   744.0    0.00 
  17    0:50   0.00   26.9   100    1.2   210     3.2   744.0    0.00 
  17    1:00   0.00   26.7   100    2.0   210     3.7   743.9    0.00 
  17    1:10   0.00   26.7   100    1.8   246     3.6   743.9    0.00 
  17    1:20   0.00   26.9    99    1.9   235     3.5   743.9    0.00 
  17    1:30   0.00   26.9    99    1.2   160     2.4   743.9    0.00 
  17    1:40   0.00   26.9    99    1.2   159     3.7   744.0    0.00 
  17    1:50   0.00   26.9    98    3.2   149     4.4   744.1    0.00 
  17    2:00   0.00   26.8    98    2.1   148     3.4   744.1    0.00 
  17    2:10   0.00   26.7    99    1.0   162     1.9   744.1    0.00 
  17    2:20   0.00   26.8   100    0.5   160     1.0   744.2    0.00 
  17    2:30   0.00   26.9    99    1.7   184     2.7   744.1    0.00 
  17    2:40   0.00   26.8    98    2.2   186     2.8   744.1    0.00 
  17    2:50   0.00   26.8    98    2.3   183     3.2   744.1    0.00 
  17    3:00   0.00   26.5    97    2.5   185     3.6   744.1    0.00 
  17    3:10   0.00   26.3    98    2.2   170     3.1   744.1    0.00 
  17    3:20   0.00   26.6    98    2.6   150     3.6   744.2    0.00 
  17    3:30   0.00   26.8    97    2.6   150     3.4   744.1    0.00 
  17    3:40   0.00   26.7    97    2.4   171     3.5   744.1    0.00 
  17    3:50   0.00   26.6    99    1.8   191     2.9   744.1    0.00 
  17    4:00   0.00   26.6    99    1.7   175     2.7   744.2    0.00 
  17    4:10   0.00   26.6    99    0.7   199     1.5   744.2    0.00 
  17    4:20   0.00   26.6    99    0.5   203     1.0   744.1    0.00 
  17    4:30   0.00   26.5   100    0.3   211     0.8   744.1    0.00 
  17    4:40   0.00   26.4   100    0.3   348     1.0   744.1    0.00 
  17    4:50   0.00   26.1    99    1.4   341     2.1   744.1    0.00 
  17    5:00   0.00   26.2    99    1.2    21     2.1   744.1    0.00 
  17    5:10   0.00   26.2    98    1.2    78     1.7   744.1    0.00 
  17    5:20   0.00   26.0    97    1.0    12     2.0   744.1    0.00 
  17    5:30   0.00   25.7    96    1.1    22     1.8   744.1    0.00 
  17    5:40   0.00   24.3    95    0.6    64     1.0   744.1    0.00 
  17    5:50   0.00   20.3    92    0.1   237     0.6   744.2    0.00 
  17    6:00   0.00   17.6    92    0.2   151     0.6   744.3    0.00 
  17    6:10   0.00   14.6    92    0.2   353     0.6   744.3    0.00 
  17    6:20   0.00   12.0    91    0.5   352     1.3   744.3    0.00 
  17    6:30   0.00    9.1    89    0.5   355     1.1   744.5    0.00 
  17    6:40   0.00   10.0    94    0.6   326     1.1   744.6    0.00 
  17    6:50   0.00    9.8    92    0.1   113     0.5   744.6    0.00 
  17    7:00   0.00    8.9    90    0.0   248     0.5   744.7    0.00 
  17    7:10   0.00   10.2    93    0.8   336     1.5   744.8    0.00 
  17    7:20   0.00   11.1    93    0.7   147     1.2   744.9    0.00 
  17    7:30   0.01   11.8    94    1.1   163     1.4   745.0    0.00 
  17    7:40   0.02   10.8    91    0.1    16     0.6   745.1    0.00 
  17    7:50   0.04   10.8    92    0.0   242     0.4   745.1    0.00 
  17    8:00   0.03   10.1    91    0.9    37     2.0   745.2    0.00 
  17    8:10   0.03    7.6    88    0.3    28     1.3   745.3    0.00 
  17    8:20   0.10    8.7    92    0.1    57     0.5   745.3    0.00 
  17    8:30   0.14    9.5    91    0.5   341     1.2   745.4    0.00 
  17    8:40   0.15    9.5    90    0.4   298     0.8   745.5    0.00 
  17    8:50   0.19    9.8    91    0.6   321     1.1   745.5    0.00 
  17    9:00   0.23   13.7    93    0.1   316     0.7   745.5    0.00 
  17    9:10   0.23   11.5    88    0.7    96     1.0   745.6    0.00 
  17    9:20   0.28   11.4    91    0.7   335     1.7   745.7    0.00 
  17    9:30   0.27   12.2    90    0.8   112     1.3   745.7    0.00 
  17    9:40   0.37   14.8    92    0.4   162     0.8   745.7    0.00 
  17    9:50   0.42   18.6    94    0.3    12     0.8   745.8    0.00 
  17   10:00   0.45   22.3    91    0.4    25     1.2   745.8    0.00 
  17   10:10   0.46   20.6    86    0.4    40     0.8   745.8    0.00 
  17   10:20   0.50   22.1    89    0.0     0     0.0   745.8    0.00 
  17   10:30   0.51   23.3    86    0.0   108     0.1   745.9    0.00 
  17   10:40   0.55   24.1    85    0.2    16     0.8   745.9    0.00 
  17   10:50   0.56   22.1    78    1.0    10     1.3   745.9    0.00 
  17   11:00   0.59   22.7    81    0.4    44     0.7   745.9    0.00 
  17   11:10   0.61   25.2    76    0.5    43     0.8   745.8    0.00 
  17   11:20   0.54   26.4    71    0.5    74     0.9   745.6    0.00 

Return to Hidden Valley, Valles Caldera graphs page.


Western Regional Climate Center,wrcc@dri.edu